This is the latest recevied weather packets stored in our database for station/object CW2401. If no packets are shown the sender has not sent any weather packets the latest 10 day(s).
| Time | Temp. | Humidity | Pressure | Rain* | Wind** | Luminosity | Snow |
|---|---|---|---|---|---|---|---|
| 1777579139 | 21.67° C | 59% | 1010.2 hPa | 0 mm | - | - | - |
| 1777578898 | 21.11° C | 62% | 1010.3 hPa | 0 mm | - | - | - |
| 1777578418 | 21.11° C | 61% | 1010.3 hPa | 0 mm | - | - | - |
| 1777578177 | 21.11° C | 63% | 1010.3 hPa | 0 mm | - | - | - |
| 1777576018 | 20.56° C | 65% | 1010.4 hPa | 0 mm | - | - | - |
| 1777574449 | 20° C | 68% | 1010.5 hPa | 0 mm | - | - | - |
| 1777573242 | 20° C | 66% | 1010.3 hPa | 0 mm | - | - | - |
| 1777572152 | 20° C | 69% | 1010.3 hPa | 0 mm | - | - | - |
| 1777571791 | 19.44° C | 68% | 1010.4 hPa | 0 mm | - | - | - |
| 1777571551 | 19.44° C | 69% | 1010.4 hPa | 0 mm | - | - | - |
| 1777571068 | 19.44° C | 69% | 1010.4 hPa | 0 mm | - | - | - |
| 1777570105 | 18.33° C | 72% | 1010.7 hPa | 0 mm | - | - | - |
| 1777569984 | 18.33° C | 73% | 1010.6 hPa | 0 mm | - | - | - |
| 1777569863 | 18.33° C | 72% | 1010.7 hPa | 0 mm | - | - | - |
| 1777569744 | 18.33° C | 74% | 1010.8 hPa | 0 mm | - | - | - |
| 1777569624 | 18.33° C | 74% | 1010.8 hPa | 0 mm | - | - | - |
| 1777569264 | 17.78° C | 76% | 1011 hPa | 0 mm | - | - | - |
| 1777568664 | 17.78° C | 81% | 1011.1 hPa | 0 mm | - | - | - |
| 1777568183 | 16.67° C | 82% | 1011.2 hPa | 0 mm | - | - | - |
| 1777567580 | 16.67° C | 87% | 1011.3 hPa | 0 mm | - | - | - |
| 1777566484 | 15.56° C | 91% | 1011.5 hPa | 0 mm | - | - | - |
| 1777564432 | 14.44° C | 94% | 1012.1 hPa | 0 mm | - | - | - |
| 1777563828 | 14.44° C | 94% | 1012.1 hPa | 0 mm | - | - | - |
| 1777563225 | 14.44° C | 94% | 1012 hPa | 0 mm | - | - | - |
| 1777562374 | 14.44° C | 94% | 1011.9 hPa | 0 mm | - | - | - |
* Rain latest hour (hover to see other rain measurements)
** Current wind speed in m/s (hover to see current wind gust speed)